YKEP weather

Lake Keepit Airport
New South Wales, Australia

Public forecast

Using degrees Celsius for public forecast. Weather courtesy of forecast.io.

METAR (pilot weather report)

Closest report is Tamworth Airport, 20.2 nm (37.4 km) SE. Retrieved 2019/04/24 17:30 UTC (15 minutes ago):

YSTW 241730Z AUTO 17007KT 9999 // NCD 14/10 Q1021 RF00.0/000.0

TAF (pilot weather forecast)

Closest forecast is Tamworth Airport, 20.2 nm (37.4 km) SE. Retrieved 2019/04/24 12:36 UTC (5 hours ago):

TAF TAF YSTW 241051Z 2412/2506 13006KT CAVOK FM242300 24008KT CAVOK